createdAt,value
2018-06-02T00:02:09.502Z,18.00
2018-06-02T00:04:35.754Z,18.00
2018-06-02T00:07:02.807Z,18.00
2018-06-02T00:09:29.062Z,18.00
2018-06-02T00:11:55.321Z,18.00
2018-06-02T00:14:21.609Z,17.90
2018-06-02T00:16:47.870Z,17.90
2018-06-02T00:19:14.107Z,17.90
2018-06-02T00:21:40.409Z,17.90
2018-06-02T00:24:06.694Z,17.90
2018-06-02T00:26:32.944Z,17.80
2018-06-02T00:28:59.996Z,17.80
2018-06-02T00:31:26.258Z,17.80
2018-06-02T00:33:52.500Z,17.80
2018-06-02T00:36:18.770Z,17.80
2018-06-02T00:38:45.794Z,17.70
2018-06-02T00:41:12.053Z,17.70
2018-06-02T00:43:39.153Z,17.70
2018-06-02T00:46:05.461Z,17.70
2018-06-02T00:48:31.789Z,17.60
2018-06-02T00:50:58.092Z,17.60
2018-06-02T00:53:24.356Z,17.60
2018-06-02T00:55:50.628Z,17.60
2018-06-02T00:58:16.908Z,17.60
2018-06-02T01:00:43.164Z,17.50
2018-06-02T01:03:09.447Z,17.50
2018-06-02T01:05:35.718Z,17.50
2018-06-02T01:08:01.990Z,17.50
2018-06-02T01:10:29.002Z,17.50
2018-06-02T01:12:55.313Z,17.50
2018-06-02T01:15:21.577Z,17.50
2018-06-02T01:17:47.857Z,17.50
2018-06-02T01:20:14.188Z,17.50
2018-06-02T01:22:41.223Z,17.40
2018-06-02T01:25:08.215Z,17.40
2018-06-02T01:27:34.469Z,17.40
2018-06-02T01:30:00.729Z,17.40
2018-06-02T01:32:28.443Z,17.30
2018-06-02T01:34:54.751Z,17.30
2018-06-02T01:37:21.008Z,17.30
2018-06-02T01:39:47.281Z,17.30
2018-06-02T01:42:14.309Z,17.30
2018-06-02T01:44:40.574Z,17.30
2018-06-02T01:47:06.886Z,17.30
2018-06-02T01:49:33.927Z,17.30
2018-06-02T01:52:01.053Z,17.30
2018-06-02T01:54:27.301Z,17.20
2018-06-02T01:56:54.345Z,17.20
2018-06-02T01:59:21.340Z,17.20
2018-06-02T02:01:47.588Z,17.20
2018-06-02T02:04:13.927Z,17.20
2018-06-02T02:06:40.938Z,17.20
2018-06-02T02:09:07.242Z,17.20
2018-06-02T02:11:34.286Z,17.20
2018-06-02T02:14:01.298Z,17.20
2018-06-02T02:16:27.550Z,17.20
2018-06-02T02:18:54.593Z,17.20
2018-06-02T02:21:20.856Z,17.10
2018-06-02T02:23:47.116Z,17.10
2018-06-02T02:26:13.423Z,17.10
2018-06-02T02:28:39.734Z,17.10
2018-06-02T02:31:06.741Z,17.00
2018-06-02T02:33:33.800Z,17.00
2018-06-02T02:36:00.073Z,17.00
2018-06-02T02:38:26.334Z,17.00
2018-06-02T02:40:52.610Z,17.00
2018-06-02T02:43:19.618Z,17.00
2018-06-02T02:45:45.858Z,16.90
2018-06-02T02:48:12.179Z,17.00
2018-06-02T02:50:38.423Z,16.90
2018-06-02T02:53:04.718Z,16.90
2018-06-02T02:55:30.997Z,16.90
2018-06-02T02:57:57.989Z,16.80
2018-06-02T03:00:24.259Z,16.80
2018-06-02T03:02:50.546Z,16.80
2018-06-02T03:05:16.778Z,16.80
2018-06-02T03:07:43.061Z,16.70
2018-06-02T03:10:10.095Z,16.70
2018-06-02T03:12:36.362Z,16.70
2018-06-02T03:15:02.654Z,16.70
2018-06-02T03:17:28.910Z,16.70
2018-06-02T03:19:55.230Z,16.70
2018-06-02T03:22:21.444Z,16.70
2018-06-02T03:24:49.265Z,16.60
2018-06-02T03:27:15.535Z,16.70
2018-06-02T03:29:41.775Z,16.70
2018-06-02T03:32:08.807Z,16.70
2018-06-02T03:34:35.061Z,16.70
2018-06-02T03:37:02.081Z,16.70
2018-06-02T03:39:29.119Z,16.70
2018-06-02T03:41:55.404Z,16.70
2018-06-02T03:44:21.663Z,16.70
2018-06-02T03:46:47.984Z,16.70
2018-06-02T03:49:14.282Z,16.70
2018-06-02T03:51:40.542Z,16.70
2018-06-02T03:54:06.891Z,16.70
2018-06-02T03:56:33.154Z,16.80
2018-06-02T03:58:59.397Z,16.90
2018-06-02T04:01:26.443Z,17.00
2018-06-02T04:03:52.723Z,16.90
2018-06-02T04:06:18.983Z,17.00
2018-06-02T04:08:45.298Z,17.10
2018-06-02T04:11:11.572Z,17.10
2018-06-02T04:13:37.840Z,17.20
2018-06-02T04:16:04.146Z,17.30
2018-06-02T04:18:30.405Z,17.40
2018-06-02T04:20:56.658Z,17.50
2018-06-02T04:23:22.940Z,17.60
2018-06-02T04:25:49.221Z,17.70
2018-06-02T04:28:15.493Z,17.90
2018-06-02T04:30:41.797Z,18.30
2018-06-02T04:33:08.029Z,19.50
2018-06-02T04:35:34.306Z,20.70
2018-06-02T04:38:00.582Z,21.60
2018-06-02T04:40:26.820Z,22.80
2018-06-02T04:42:53.854Z,25.10
2018-06-02T04:45:20.898Z,25.90
2018-06-02T04:47:47.912Z,26.60
2018-06-02T04:50:14.204Z,26.50
2018-06-02T04:52:40.545Z,27.50
2018-06-02T04:55:06.810Z,28.30
2018-06-02T04:57:33.063Z,29.00
2018-06-02T05:00:00.103Z,28.60
2018-06-02T05:02:26.368Z,28.50
2018-06-02T05:04:52.617Z,28.90
2018-06-02T05:07:18.949Z,29.50
2018-06-02T05:09:45.216Z,30.10
2018-06-02T05:12:11.471Z,30.60
2018-06-02T05:14:38.516Z,31.50
2018-06-02T05:17:04.762Z,31.40
2018-06-02T05:19:31.064Z,31.80
2018-06-02T05:21:58.102Z,32.40
2018-06-02T05:24:24.357Z,32.40
2018-06-02T05:26:50.618Z,32.60
2018-06-02T05:29:16.911Z,32.70
2018-06-02T05:31:43.927Z,32.10
2018-06-02T05:34:10.201Z,32.10
2018-06-02T05:36:36.558Z,31.50
2018-06-02T05:39:02.893Z,31.10
2018-06-02T05:41:29.129Z,30.80
2018-06-02T05:43:55.401Z,30.50
2018-06-02T05:46:21.649Z,30.30
2018-06-02T05:48:48.636Z,30.10
2018-06-02T05:51:14.952Z,30.00
2018-06-02T05:53:41.192Z,29.80
2018-06-02T05:56:07.473Z,29.60
2018-06-02T05:58:33.793Z,29.20
2018-06-02T06:01:00.057Z,29.00
2018-06-02T06:03:26.343Z,28.80
2018-06-02T06:05:52.624Z,28.50
2018-06-02T06:08:18.919Z,28.10
2018-06-02T06:10:45.247Z,27.80
2018-06-02T06:13:12.264Z,27.50
2018-06-02T06:15:38.541Z,27.50
2018-06-02T06:18:04.862Z,27.60
2018-06-02T06:20:31.144Z,27.90
2018-06-02T06:22:57.397Z,28.10
2018-06-02T06:25:23.663Z,28.40
2018-06-02T06:27:50.034Z,28.80
2018-06-02T06:30:16.286Z,29.10
2018-06-02T06:32:42.557Z,29.50
2018-06-02T06:35:08.903Z,29.90
2018-06-02T06:37:35.165Z,30.30
2018-06-02T06:40:01.415Z,30.40
2018-06-02T06:42:27.768Z,30.70
2018-06-02T06:44:54.764Z,31.70
2018-06-02T06:47:21.030Z,31.70
2018-06-02T06:49:48.060Z,32.00
2018-06-02T06:52:14.340Z,32.00
2018-06-02T06:54:40.601Z,31.80
2018-06-02T06:57:06.894Z,31.20
2018-06-02T06:59:33.157Z,30.90
2018-06-02T07:01:59.424Z,30.70
2018-06-02T07:04:26.490Z,30.90
2018-06-02T07:06:53.497Z,31.00
2018-06-02T07:09:19.761Z,30.90
2018-06-02T07:11:46.101Z,31.00
2018-06-02T07:14:13.110Z,31.30
2018-06-02T07:16:39.365Z,31.30
2018-06-02T07:19:06.419Z,30.90
2018-06-02T07:21:33.437Z,30.70
2018-06-02T07:23:59.717Z,30.70
2018-06-02T07:26:26.026Z,30.30
2018-06-02T07:28:53.056Z,30.80
2018-06-02T07:31:19.318Z,30.80
2018-06-02T07:33:45.590Z,31.60
2018-06-02T07:36:11.890Z,32.90
2018-06-02T07:38:38.909Z,34.10
2018-06-02T07:41:05.255Z,34.10
2018-06-02T07:43:31.531Z,34.40
2018-06-02T07:45:58.553Z,36.30
2018-06-02T07:48:24.859Z,36.20
2018-06-02T07:50:51.111Z,37.50
2018-06-02T07:53:17.434Z,38.10
2018-06-02T07:55:43.763Z,38.70
2018-06-02T07:58:10.023Z,39.10
2018-06-02T08:00:36.342Z,39.00
2018-06-02T08:03:02.609Z,38.50
2018-06-02T08:05:28.893Z,38.20
2018-06-02T08:07:55.178Z,37.60
2018-06-02T08:10:22.240Z,36.60
2018-06-02T08:12:48.549Z,36.60
2018-06-02T08:15:14.813Z,37.30
2018-06-02T08:17:41.145Z,38.10
2018-06-02T08:20:07.428Z,37.90
2018-06-02T08:22:35.179Z,38.30
2018-06-02T08:25:01.531Z,38.30
2018-06-02T08:27:27.764Z,37.90
2018-06-02T08:29:54.786Z,38.20
2018-06-02T08:32:21.102Z,38.20
2018-06-02T08:34:47.366Z,38.40
2018-06-02T08:37:13.634Z,39.40
2018-06-02T08:39:39.980Z,40.10
2018-06-02T08:42:07.363Z,39.20
2018-06-02T08:44:33.667Z,39.20
2018-06-02T08:46:59.961Z,40.30
2018-06-02T08:49:26.255Z,40.60
2018-06-02T08:51:52.527Z,40.90
2018-06-02T08:54:18.934Z,40.40
2018-06-02T08:56:45.190Z,39.80
2018-06-02T08:59:11.466Z,38.40
2018-06-02T09:01:37.742Z,36.80
2018-06-02T09:04:04.002Z,35.30
2018-06-02T09:06:30.249Z,34.20
2018-06-02T09:08:56.553Z,33.40
2018-06-02T09:11:22.810Z,32.90
2018-06-02T09:13:49.090Z,32.50
2018-06-02T09:16:15.493Z,32.10
2018-06-02T09:18:41.780Z,31.80
2018-06-02T09:21:08.078Z,31.40
2018-06-02T09:23:34.493Z,31.10
2018-06-02T09:26:01.522Z,30.50
2018-06-02T09:28:27.778Z,30.50
2018-06-02T09:30:54.812Z,29.90
2018-06-02T09:33:21.094Z,29.90
2018-06-02T09:35:47.332Z,29.60
2018-06-02T09:38:13.670Z,29.40
2018-06-02T09:40:39.929Z,29.20
2018-06-02T09:43:06.175Z,28.90
2018-06-02T09:45:33.209Z,28.30
2018-06-02T09:47:59.477Z,28.20
2018-06-02T09:50:25.787Z,28.00
2018-06-02T09:52:52.105Z,27.70
2018-06-02T09:55:18.401Z,27.40
2018-06-02T09:57:44.755Z,27.10
2018-06-02T10:00:11.023Z,26.80
2018-06-02T10:02:38.016Z,26.30
2018-06-02T10:05:04.294Z,26.30
2018-06-02T10:07:30.600Z,26.10
2018-06-02T10:09:56.878Z,26.10
2018-06-02T10:12:23.152Z,26.00
2018-06-02T10:14:49.446Z,26.00
2018-06-02T10:17:15.729Z,26.10
2018-06-02T10:19:42.713Z,26.10
2018-06-02T10:22:09.007Z,26.00
2018-06-02T10:24:35.292Z,26.10
2018-06-02T10:27:01.588Z,26.00
2018-06-02T10:29:27.908Z,26.00
2018-06-02T10:31:54.193Z,26.00
2018-06-02T10:34:20.470Z,26.10
2018-06-02T10:36:46.786Z,26.30
2018-06-02T10:39:13.815Z,26.90
2018-06-02T10:41:40.092Z,26.90
2018-06-02T10:44:06.424Z,27.10
2018-06-02T10:46:32.759Z,27.00
2018-06-02T10:48:59.024Z,26.90
2018-06-02T10:51:25.333Z,26.90
2018-06-02T10:53:51.609Z,26.90
2018-06-02T10:56:18.685Z,27.40
2018-06-02T10:58:44.993Z,27.40
2018-06-02T11:01:11.315Z,27.70
2018-06-02T11:03:38.325Z,27.80
2018-06-02T11:06:04.634Z,27.80
2018-06-02T11:08:30.890Z,27.70
2018-06-02T11:10:57.172Z,27.70
2018-06-02T11:13:23.458Z,27.60
2018-06-02T11:15:49.769Z,27.50
2018-06-02T11:18:16.040Z,27.50
2018-06-02T11:20:42.315Z,27.50
2018-06-02T11:23:08.577Z,27.50
2018-06-02T11:25:34.841Z,27.70
2018-06-02T11:28:01.211Z,27.80
2018-06-02T11:30:27.811Z,27.80
2018-06-02T11:32:55.562Z,27.70
2018-06-02T11:35:22.613Z,27.60
2018-06-02T11:37:48.854Z,27.60
2018-06-02T11:40:15.146Z,27.70
2018-06-02T11:42:41.442Z,27.80
2018-06-02T11:45:07.721Z,27.70
2018-06-02T11:47:34.006Z,27.60
2018-06-02T11:50:00.307Z,27.50
2018-06-02T11:52:27.299Z,27.30
2018-06-02T11:54:53.547Z,27.30
2018-06-02T11:57:19.931Z,27.30
2018-06-02T11:59:46.261Z,27.20
2018-06-02T12:02:13.243Z,27.40
2018-06-02T12:04:39.538Z,27.40
2018-06-02T12:07:05.784Z,27.50
2018-06-02T12:09:32.016Z,27.60
2018-06-02T12:11:58.348Z,27.60
2018-06-02T12:14:24.622Z,27.70
2018-06-02T12:16:51.626Z,27.90
2018-06-02T12:19:18.674Z,27.90
2018-06-02T12:21:44.970Z,27.90
2018-06-02T12:24:11.249Z,27.90
2018-06-02T12:26:37.540Z,27.90
2018-06-02T12:29:03.811Z,27.80
2018-06-02T12:31:30.843Z,27.90
2018-06-02T12:33:57.153Z,27.80
2018-06-02T12:36:23.428Z,27.90
2018-06-02T12:38:50.474Z,27.90
2018-06-02T12:41:16.763Z,27.90
2018-06-02T12:43:43.027Z,27.90
2018-06-02T12:46:10.766Z,28.00
2018-06-02T12:48:37.055Z,27.90
2018-06-02T12:51:03.302Z,28.00
2018-06-02T12:53:29.570Z,28.00
2018-06-02T12:55:55.882Z,28.10
2018-06-02T12:58:22.210Z,28.20
2018-06-02T13:00:48.463Z,28.30
2018-06-02T13:03:14.814Z,28.50
2018-06-02T13:05:41.055Z,28.50
2018-06-02T13:08:08.049Z,28.40
2018-06-02T13:10:34.350Z,28.40
2018-06-02T13:13:01.377Z,28.20
2018-06-02T13:15:28.628Z,28.10
2018-06-02T13:17:54.930Z,28.10
2018-06-02T13:20:21.194Z,28.10
2018-06-02T13:22:48.210Z,28.20
2018-06-02T13:25:14.515Z,28.20
2018-06-02T13:27:40.758Z,28.40
2018-06-02T13:30:07.014Z,28.50
2018-06-02T13:32:33.285Z,28.50
2018-06-02T13:34:59.612Z,28.50
2018-06-02T13:37:25.943Z,28.50
2018-06-02T13:39:52.279Z,28.40
2018-06-02T13:42:19.350Z,28.50
2018-06-02T13:44:45.610Z,28.50
2018-06-02T13:47:11.908Z,28.60
2018-06-02T13:49:38.215Z,28.70
2018-06-02T13:52:04.492Z,28.60
2018-06-02T13:54:30.792Z,28.60
2018-06-02T13:56:57.084Z,28.50
2018-06-02T13:59:24.146Z,28.30
2018-06-02T14:01:50.456Z,28.30
2018-06-02T14:04:17.465Z,28.20
2018-06-02T14:06:43.731Z,28.10
2018-06-02T14:09:09.995Z,28.10
2018-06-02T14:11:36.267Z,28.00
2018-06-02T14:14:02.560Z,27.90
2018-06-02T14:16:28.866Z,27.80
2018-06-02T14:18:55.142Z,27.80
2018-06-02T14:21:21.437Z,27.70
2018-06-02T14:23:47.734Z,27.60
2018-06-02T14:26:14.745Z,27.50
2018-06-02T14:28:41.041Z,27.50
2018-06-02T14:31:07.390Z,27.60
2018-06-02T14:33:33.662Z,27.60
2018-06-02T14:35:59.929Z,27.60
2018-06-02T14:38:26.223Z,27.60
2018-06-02T14:40:52.467Z,27.60
2018-06-02T14:43:19.469Z,27.50
2018-06-02T14:45:45.788Z,27.50
2018-06-02T14:48:12.066Z,27.50
2018-06-02T14:50:38.298Z,27.60
2018-06-02T14:53:05.357Z,27.70
2018-06-02T14:55:32.458Z,27.70
2018-06-02T14:57:58.706Z,27.70
2018-06-02T15:00:25.046Z,27.90
2018-06-02T15:02:51.340Z,28.00
2018-06-02T15:05:17.801Z,28.20
2018-06-02T15:07:44.207Z,28.30
2018-06-02T15:10:10.488Z,28.40
2018-06-02T15:12:37.511Z,28.40
2018-06-02T15:15:03.849Z,28.40
2018-06-02T15:17:30.127Z,28.30
2018-06-02T15:19:56.378Z,28.20
2018-06-02T15:22:22.650Z,28.10
2018-06-02T15:24:49.728Z,27.80
2018-06-02T15:27:15.982Z,27.80
2018-06-02T15:29:42.314Z,27.70
2018-06-02T15:32:08.595Z,27.40
2018-06-02T15:34:34.916Z,27.20
2018-06-02T15:37:01.945Z,26.80
2018-06-02T15:39:29.703Z,26.70
2018-06-02T15:41:56.031Z,26.70
2018-06-02T15:44:22.339Z,26.60
2018-06-02T15:46:48.584Z,26.40
2018-06-02T15:49:14.843Z,26.30
2018-06-02T15:51:41.152Z,26.20
2018-06-02T15:54:07.412Z,26.10
2018-06-02T15:56:34.421Z,26.00
2018-06-02T15:59:00.718Z,26.00
2018-06-02T16:01:27.047Z,25.90
2018-06-02T16:03:53.332Z,25.90
2018-06-02T16:06:19.615Z,25.90
2018-06-02T16:08:45.925Z,25.90
2018-06-02T16:11:12.205Z,25.90
2018-06-02T16:13:38.521Z,25.90
2018-06-02T16:16:04.867Z,26.00
2018-06-02T16:18:31.143Z,26.00
2018-06-02T16:20:58.154Z,26.10
2018-06-02T16:23:24.408Z,26.10
2018-06-02T16:25:51.452Z,26.20
2018-06-02T16:28:18.487Z,26.10
2018-06-02T16:30:48.123Z,26.10
2018-06-02T16:33:15.124Z,26.10
2018-06-02T16:35:41.433Z,26.10
2018-06-02T16:38:07.698Z,26.10
2018-06-02T16:40:33.960Z,26.00
2018-06-02T16:43:00.253Z,26.00
2018-06-02T16:45:26.522Z,26.00
2018-06-02T16:47:52.809Z,25.90
2018-06-02T16:50:19.112Z,25.90
2018-06-02T16:52:45.397Z,25.90
2018-06-02T16:55:11.717Z,25.80
2018-06-02T16:57:38.822Z,25.90
2018-06-02T17:00:05.108Z,25.90
2018-06-02T17:02:31.404Z,25.80
2018-06-02T17:04:58.471Z,26.00
2018-06-02T17:07:24.736Z,26.00
2018-06-02T17:09:51.010Z,26.00
2018-06-02T17:12:17.331Z,26.00
2018-06-02T17:14:44.097Z,26.00
2018-06-02T17:17:11.142Z,26.00
2018-06-02T17:20:06.396Z,26.00
2018-06-02T17:22:33.952Z,25.90
2018-06-02T17:25:01.571Z,25.80
2018-06-02T17:27:29.170Z,25.70
2018-06-02T17:29:56.802Z,25.60
2018-06-02T17:32:24.346Z,25.60
2018-06-02T17:34:51.963Z,25.50
2018-06-02T17:37:19.522Z,25.40
2018-06-02T17:39:47.112Z,25.40
2018-06-02T17:42:14.779Z,25.40
2018-06-02T17:44:42.366Z,25.30
2018-06-02T17:47:09.997Z,25.30
2018-06-02T17:49:37.746Z,25.20
2018-06-02T17:52:05.659Z,25.20
2018-06-02T17:57:00.918Z,25.10
2018-06-02T17:59:28.493Z,25.00
2018-06-02T18:01:56.110Z,25.00
2018-06-02T18:04:23.750Z,25.00
2018-06-02T18:06:51.330Z,25.00
2018-06-02T18:09:18.866Z,25.00
2018-06-02T18:11:46.448Z,24.90
2018-06-02T18:14:14.050Z,25.00
2018-06-02T18:16:41.687Z,25.00
2018-06-02T18:19:09.285Z,25.00
2018-06-02T18:21:36.952Z,24.90
2018-06-02T18:24:04.582Z,25.00
2018-06-02T18:26:33.416Z,25.00
2018-06-02T18:29:01.234Z,25.10
2018-06-02T18:31:28.949Z,25.20
2018-06-02T18:33:56.698Z,25.40
2018-06-02T18:36:24.310Z,25.40
2018-06-02T18:38:51.942Z,25.30
2018-06-02T18:41:19.522Z,25.20
2018-06-02T18:43:47.399Z,25.10
2018-06-02T18:46:15.027Z,25.00
2018-06-02T18:48:42.650Z,24.90
2018-06-02T18:51:10.248Z,24.80
2018-06-02T18:53:37.899Z,24.70
2018-06-02T18:56:05.541Z,24.60
2018-06-02T18:58:33.126Z,24.50
2018-06-02T19:01:00.697Z,24.30
2018-06-02T19:03:28.404Z,24.20
2018-06-02T19:05:55.966Z,24.00
2018-06-02T19:08:23.550Z,23.90
2018-06-02T19:10:51.243Z,23.70
2018-06-02T19:13:18.940Z,23.60
2018-06-02T19:15:46.498Z,23.50
2018-06-02T19:18:14.137Z,23.40
2018-06-02T19:20:41.663Z,23.20
2018-06-02T19:23:09.222Z,23.10
2018-06-02T19:25:36.902Z,23.00
2018-06-02T19:28:04.521Z,22.90
2018-06-02T19:30:32.081Z,22.80
2018-06-02T19:32:59.701Z,22.80
2018-06-02T19:35:27.333Z,22.70
2018-06-02T19:37:54.929Z,22.50
2018-06-02T19:40:22.505Z,22.50
2018-06-02T19:42:50.077Z,22.40
2018-06-02T19:45:17.699Z,22.30
2018-06-02T19:47:45.366Z,22.30
2018-06-02T19:50:12.885Z,22.10
2018-06-02T19:52:40.497Z,22.10
2018-06-02T19:55:08.146Z,22.00
2018-06-02T19:57:35.773Z,22.00
2018-06-02T20:00:03.790Z,22.00
2018-06-02T20:02:31.378Z,21.90
2018-06-02T20:04:59.032Z,21.90
2018-06-02T20:07:26.595Z,21.80
2018-06-02T20:09:54.198Z,21.70
2018-06-02T20:12:21.798Z,21.80
2018-06-02T20:14:49.428Z,21.80
2018-06-02T20:17:17.057Z,21.70
2018-06-02T20:19:44.594Z,21.80
2018-06-02T20:22:12.162Z,21.70
2018-06-02T20:24:39.778Z,21.70
2018-06-02T20:27:07.366Z,21.70
2018-06-02T20:29:34.957Z,21.70
2018-06-02T20:32:02.593Z,21.60
2018-06-02T20:34:30.263Z,21.40
2018-06-02T20:36:57.829Z,21.40
2018-06-02T20:39:25.482Z,21.30
2018-06-02T20:41:53.078Z,21.30
2018-06-02T20:44:20.745Z,21.30
2018-06-02T20:46:48.335Z,21.20
2018-06-02T20:49:15.894Z,21.20
2018-06-02T20:51:43.508Z,21.00
2018-06-02T20:54:11.116Z,21.00
2018-06-02T20:56:38.702Z,21.00
2018-06-02T20:59:06.254Z,20.90
2018-06-02T21:01:33.990Z,20.90
2018-06-02T21:04:01.646Z,20.80
2018-06-02T21:06:29.282Z,20.80
2018-06-02T21:08:56.875Z,20.80
2018-06-02T21:11:24.477Z,20.70
2018-06-02T21:13:52.066Z,20.70
2018-06-02T21:16:19.655Z,20.70
2018-06-02T21:18:47.238Z,20.80
2018-06-02T21:21:14.818Z,20.70
2018-06-02T21:23:42.423Z,20.70
2018-06-02T21:26:10.027Z,20.70
2018-06-02T21:28:37.593Z,20.70
2018-06-02T21:31:05.250Z,20.60
2018-06-02T21:33:32.778Z,20.60
2018-06-02T21:36:00.296Z,20.60
2018-06-02T21:38:28.046Z,20.50
2018-06-02T21:40:55.713Z,20.50
2018-06-02T21:45:50.801Z,20.40
2018-06-02T21:48:18.315Z,20.40
2018-06-02T21:50:45.915Z,20.40
2018-06-02T21:53:13.599Z,20.30
2018-06-02T21:55:41.166Z,20.30
2018-06-02T21:58:08.719Z,20.40
2018-06-02T22:00:36.429Z,20.30
2018-06-02T22:03:04.091Z,20.30
2018-06-02T22:05:31.687Z,20.20
2018-06-02T22:07:59.349Z,20.20
2018-06-02T22:10:26.983Z,20.10
2018-06-02T22:12:54.665Z,20.10
2018-06-02T22:15:22.535Z,20.10
2018-06-02T22:17:50.099Z,20.00
2018-06-02T22:20:17.655Z,20.00
2018-06-02T22:22:45.275Z,20.00
2018-06-02T22:25:12.845Z,20.00
2018-06-02T22:27:40.574Z,19.90
2018-06-02T22:30:08.195Z,19.90
2018-06-02T22:32:35.713Z,19.90
2018-06-02T22:35:03.496Z,19.80
2018-06-02T22:37:31.061Z,19.80
2018-06-02T22:39:58.674Z,19.80
2018-06-02T22:42:26.657Z,19.70
2018-06-02T22:44:54.366Z,19.70
2018-06-02T22:47:21.979Z,19.70
2018-06-02T22:49:49.543Z,19.70
2018-06-02T22:52:17.561Z,19.70
2018-06-02T22:54:45.183Z,19.70
2018-06-02T22:57:12.841Z,19.60
2018-06-02T22:59:40.793Z,19.60
2018-06-02T23:02:08.482Z,19.60
2018-06-02T23:04:36.129Z,19.60
2018-06-02T23:07:03.831Z,19.50
2018-06-02T23:09:31.493Z,19.50
2018-06-02T23:11:59.044Z,19.50
2018-06-02T23:14:26.645Z,19.50
2018-06-02T23:16:54.289Z,19.40
2018-06-02T23:19:21.881Z,19.40
2018-06-02T23:21:49.498Z,19.40
2018-06-02T23:24:17.101Z,19.40
2018-06-02T23:26:44.628Z,19.40
2018-06-02T23:29:12.549Z,19.30
2018-06-02T23:31:40.073Z,19.30
2018-06-02T23:34:07.622Z,19.30
2018-06-02T23:36:35.221Z,19.20
2018-06-02T23:39:03.323Z,19.20
2018-06-02T23:41:30.901Z,19.20
2018-06-02T23:43:58.473Z,19.20
2018-06-02T23:46:25.989Z,19.20
2018-06-02T23:48:53.547Z,19.20
2018-06-02T23:51:21.154Z,19.20
2018-06-02T23:53:48.709Z,19.10
2018-06-02T23:56:16.283Z,19.00
2018-06-02T23:58:43.857Z,18.90
